sensor_id;sensor_type;location;lat;lon;timestamp;P1;durP1;ratioP1;P2;durP2;ratioP2
29120;SDS011;16191;49.548;8.658;2023-01-04T00:01:07;6.35;;;2.70;;
29120;SDS011;16191;49.548;8.658;2023-01-04T00:03:36;6.90;;;2.83;;
29120;SDS011;16191;49.548;8.658;2023-01-04T00:06:04;5.65;;;2.85;;
29120;SDS011;16191;49.548;8.658;2023-01-04T00:08:33;5.03;;;2.55;;
29120;SDS011;16191;49.548;8.658;2023-01-04T00:11:00;6.32;;;3.00;;
29120;SDS011;16191;49.548;8.658;2023-01-04T00:13:28;7.22;;;2.92;;
29120;SDS011;16191;49.548;8.658;2023-01-04T00:15:56;8.45;;;3.53;;
29120;SDS011;16191;49.548;8.658;2023-01-04T00:18:31;7.10;;;3.10;;
29120;SDS011;16191;49.548;8.658;2023-01-04T00:21:09;5.78;;;3.15;;
29120;SDS011;16191;49.548;8.658;2023-01-04T00:23:39;13.32;;;4.60;;
29120;SDS011;16191;49.548;8.658;2023-01-04T00:26:08;9.90;;;5.55;;
29120;SDS011;16191;49.548;8.658;2023-01-04T00:28:37;6.50;;;5.32;;
29120;SDS011;16191;49.548;8.658;2023-01-04T00:31:04;9.57;;;5.65;;
29120;SDS011;16191;49.548;8.658;2023-01-04T00:33:32;14.30;;;5.57;;
29120;SDS011;16191;49.548;8.658;2023-01-04T00:36:06;11.00;;;6.15;;
29120;SDS011;16191;49.548;8.658;2023-01-04T00:38:35;12.80;;;6.72;;
29120;SDS011;16191;49.548;8.658;2023-01-04T00:41:03;11.60;;;7.20;;
29120;SDS011;16191;49.548;8.658;2023-01-04T00:43:31;10.23;;;7.18;;
29120;SDS011;16191;49.548;8.658;2023-01-04T00:45:58;11.02;;;6.90;;
29120;SDS011;16191;49.548;8.658;2023-01-04T00:48:27;10.50;;;7.93;;
29120;SDS011;16191;49.548;8.658;2023-01-04T00:50:54;16.65;;;8.90;;
29120;SDS011;16191;49.548;8.658;2023-01-04T00:53:21;15.05;;;8.10;;
29120;SDS011;16191;49.548;8.658;2023-01-04T00:55:48;15.32;;;8.73;;
29120;SDS011;16191;49.548;8.658;2023-01-04T00:58:15;12.68;;;8.52;;
29120;SDS011;16191;49.548;8.658;2023-01-04T01:00:41;12.45;;;8.02;;
29120;SDS011;16191;49.548;8.658;2023-01-04T01:03:08;12.55;;;7.35;;
29120;SDS011;16191;49.548;8.658;2023-01-04T01:05:35;10.07;;;6.93;;
29120;SDS011;16191;49.548;8.658;2023-01-04T01:08:02;13.73;;;8.20;;
29120;SDS011;16191;49.548;8.658;2023-01-04T01:10:49;13.07;;;6.70;;
29120;SDS011;16191;49.548;8.658;2023-01-04T01:13:17;10.18;;;7.03;;
29120;SDS011;16191;49.548;8.658;2023-01-04T01:15:44;10.13;;;6.40;;
29120;SDS011;16191;49.548;8.658;2023-01-04T01:18:11;11.27;;;5.93;;
29120;SDS011;16191;49.548;8.658;2023-01-04T01:20:45;11.45;;;6.20;;
29120;SDS011;16191;49.548;8.658;2023-01-04T01:23:12;9.70;;;6.03;;
29120;SDS011;16191;49.548;8.658;2023-01-04T01:25:40;11.48;;;6.65;;
29120;SDS011;16191;49.548;8.658;2023-01-04T01:28:08;14.25;;;6.43;;
29120;SDS011;16191;49.548;8.658;2023-01-04T01:30:39;10.68;;;6.25;;
29120;SDS011;16191;49.548;8.658;2023-01-04T01:33:07;8.70;;;5.95;;
29120;SDS011;16191;49.548;8.658;2023-01-04T01:35:35;12.93;;;6.10;;
29120;SDS011;16191;49.548;8.658;2023-01-04T01:38:02;8.52;;;6.13;;
29120;SDS011;16191;49.548;8.658;2023-01-04T01:40:29;13.15;;;6.45;;
29120;SDS011;16191;49.548;8.658;2023-01-04T01:42:56;10.27;;;6.90;;
29120;SDS011;16191;49.548;8.658;2023-01-04T01:45:32;10.20;;;5.93;;
29120;SDS011;16191;49.548;8.658;2023-01-04T01:48:10;13.15;;;7.45;;
29120;SDS011;16191;49.548;8.658;2023-01-04T01:53:12;12.98;;;7.30;;
29120;SDS011;16191;49.548;8.658;2023-01-04T01:55:40;11.20;;;6.75;;
29120;SDS011;16191;49.548;8.658;2023-01-04T01:58:33;9.00;;;6.22;;
29120;SDS011;16191;49.548;8.658;2023-01-04T02:01:24;12.30;;;6.40;;
29120;SDS011;16191;49.548;8.658;2023-01-04T02:04:13;7.97;;;5.60;;
29120;SDS011;16191;49.548;8.658;2023-01-04T02:07:01;14.20;;;5.43;;
29120;SDS011;16191;49.548;8.658;2023-01-04T02:09:49;7.57;;;5.25;;
29120;SDS011;16191;49.548;8.658;2023-01-04T02:12:36;12.90;;;6.10;;
29120;SDS011;16191;49.548;8.658;2023-01-04T02:15:03;8.77;;;5.88;;
29120;SDS011;16191;49.548;8.658;2023-01-04T02:20:30;12.20;;;6.60;;
29120;SDS011;16191;49.548;8.658;2023-01-04T02:28:52;9.63;;;6.57;;
29120;SDS011;16191;49.548;8.658;2023-01-04T02:31:40;10.13;;;6.10;;
29120;SDS011;16191;49.548;8.658;2023-01-04T02:34:27;10.70;;;6.97;;
29120;SDS011;16191;49.548;8.658;2023-01-04T02:42:43;10.30;;;6.40;;
29120;SDS011;16191;49.548;8.658;2023-01-04T02:45:42;10.88;;;7.00;;
29120;SDS011;16191;49.548;8.658;2023-01-04T02:48:15;11.50;;;6.85;;
29120;SDS011;16191;49.548;8.658;2023-01-04T02:51:00;11.73;;;7.28;;
29120;SDS011;16191;49.548;8.658;2023-01-04T02:53:34;9.65;;;6.55;;
29120;SDS011;16191;49.548;8.658;2023-01-04T03:01:41;13.43;;;7.47;;
29120;SDS011;16191;49.548;8.658;2023-01-04T03:10:39;11.02;;;7.32;;
29120;SDS011;16191;49.548;8.658;2023-01-04T03:13:20;13.10;;;7.65;;
29120;SDS011;16191;49.548;8.658;2023-01-04T03:15:54;10.95;;;7.95;;
29120;SDS011;16191;49.548;8.658;2023-01-04T03:18:27;12.07;;;7.85;;
29120;SDS011;16191;49.548;8.658;2023-01-04T03:20:56;17.73;;;7.90;;
29120;SDS011;16191;49.548;8.658;2023-01-04T03:23:27;11.02;;;7.88;;
29120;SDS011;16191;49.548;8.658;2023-01-04T03:26:19;15.15;;;7.53;;
29120;SDS011;16191;49.548;8.658;2023-01-04T03:32:15;11.75;;;7.15;;
29120;SDS011;16191;49.548;8.658;2023-01-04T03:35:08;13.52;;;7.80;;
29120;SDS011;16191;49.548;8.658;2023-01-04T03:41:05;10.65;;;6.88;;
29120;SDS011;16191;49.548;8.658;2023-01-04T03:44:05;9.50;;;5.72;;
29120;SDS011;16191;49.548;8.658;2023-01-04T03:47:00;10.45;;;5.68;;
29120;SDS011;16191;49.548;8.658;2023-01-04T03:49:51;9.23;;;4.63;;
29120;SDS011;16191;49.548;8.658;2023-01-04T03:52:29;8.07;;;4.30;;
29120;SDS011;16191;49.548;8.658;2023-01-04T03:54:57;9.90;;;4.15;;
29120;SDS011;16191;49.548;8.658;2023-01-04T03:57:26;8.98;;;4.07;;
29120;SDS011;16191;49.548;8.658;2023-01-04T03:59:59;7.80;;;4.00;;
29120;SDS011;16191;49.548;8.658;2023-01-04T04:02:30;7.50;;;4.00;;
29120;SDS011;16191;49.548;8.658;2023-01-04T04:04:58;14.93;;;3.90;;
29120;SDS011;16191;49.548;8.658;2023-01-04T04:07:44;10.07;;;3.80;;
29120;SDS011;16191;49.548;8.658;2023-01-04T04:10:29;8.27;;;4.13;;
29120;SDS011;16191;49.548;8.658;2023-01-04T04:12:56;8.40;;;4.18;;
29120;SDS011;16191;49.548;8.658;2023-01-04T04:15:23;8.95;;;4.63;;
29120;SDS011;16191;49.548;8.658;2023-01-04T04:17:50;8.02;;;5.00;;
29120;SDS011;16191;49.548;8.658;2023-01-04T04:20:16;5.60;;;4.07;;
29120;SDS011;16191;49.548;8.658;2023-01-04T04:22:44;8.77;;;5.05;;
29120;SDS011;16191;49.548;8.658;2023-01-04T04:25:11;8.30;;;4.80;;
29120;SDS011;16191;49.548;8.658;2023-01-04T04:27:37;7.65;;;4.53;;
29120;SDS011;16191;49.548;8.658;2023-01-04T04:30:04;12.93;;;4.75;;
29120;SDS011;16191;49.548;8.658;2023-01-04T04:32:31;11.02;;;4.88;;
29120;SDS011;16191;49.548;8.658;2023-01-04T04:34:59;7.80;;;5.20;;
29120;SDS011;16191;49.548;8.658;2023-01-04T04:37:25;12.65;;;6.72;;
29120;SDS011;16191;49.548;8.658;2023-01-04T04:39:53;12.63;;;7.88;;
29120;SDS011;16191;49.548;8.658;2023-01-04T04:42:20;11.73;;;7.82;;
29120;SDS011;16191;49.548;8.658;2023-01-04T04:44:47;12.68;;;8.43;;
29120;SDS011;16191;49.548;8.658;2023-01-04T04:47:14;14.50;;;8.32;;
29120;SDS011;16191;49.548;8.658;2023-01-04T04:49:41;15.63;;;10.05;;
29120;SDS011;16191;49.548;8.658;2023-01-04T04:52:07;17.10;;;10.95;;
29120;SDS011;16191;49.548;8.658;2023-01-04T04:54:34;16.88;;;10.02;;
29120;SDS011;16191;49.548;8.658;2023-01-04T04:57:01;20.48;;;12.52;;
29120;SDS011;16191;49.548;8.658;2023-01-04T04:59:28;18.98;;;12.70;;
29120;SDS011;16191;49.548;8.658;2023-01-04T05:01:55;19.73;;;11.45;;
29120;SDS011;16191;49.548;8.658;2023-01-04T05:04:22;21.75;;;12.90;;
29120;SDS011;16191;49.548;8.658;2023-01-04T05:06:48;19.48;;;13.00;;
29120;SDS011;16191;49.548;8.658;2023-01-04T05:09:15;18.55;;;12.38;;
29120;SDS011;16191;49.548;8.658;2023-01-04T05:11:42;20.27;;;12.93;;
29120;SDS011;16191;49.548;8.658;2023-01-04T05:14:27;19.45;;;12.38;;
29120;SDS011;16191;49.548;8.658;2023-01-04T05:16:54;18.95;;;13.27;;
29120;SDS011;16191;49.548;8.658;2023-01-04T05:19:21;18.27;;;12.32;;
29120;SDS011;16191;49.548;8.658;2023-01-04T05:21:47;22.85;;;12.75;;
29120;SDS011;16191;49.548;8.658;2023-01-04T05:24:14;18.58;;;12.02;;
29120;SDS011;16191;49.548;8.658;2023-01-04T05:26:41;20.33;;;11.60;;
29120;SDS011;16191;49.548;8.658;2023-01-04T05:29:08;19.58;;;12.38;;
29120;SDS011;16191;49.548;8.658;2023-01-04T05:31:54;17.10;;;11.40;;
29120;SDS011;16191;49.548;8.658;2023-01-04T05:34:21;21.20;;;12.18;;
29120;SDS011;16191;49.548;8.658;2023-01-04T05:36:48;17.83;;;12.05;;
29120;SDS011;16191;49.548;8.658;2023-01-04T05:39:15;17.55;;;11.65;;
29120;SDS011;16191;49.548;8.658;2023-01-04T05:41:41;17.75;;;11.70;;
29120;SDS011;16191;49.548;8.658;2023-01-04T05:44:27;17.85;;;11.73;;
29120;SDS011;16191;49.548;8.658;2023-01-04T05:46:53;20.77;;;12.23;;
29120;SDS011;16191;49.548;8.658;2023-01-04T05:49:20;18.45;;;11.73;;
29120;SDS011;16191;49.548;8.658;2023-01-04T05:51:47;18.75;;;11.82;;
29120;SDS011;16191;49.548;8.658;2023-01-04T05:54:14;18.83;;;11.68;;
29120;SDS011;16191;49.548;8.658;2023-01-04T05:56:46;19.33;;;12.60;;
29120;SDS011;16191;49.548;8.658;2023-01-04T05:59:13;21.58;;;13.43;;
29120;SDS011;16191;49.548;8.658;2023-01-04T06:01:41;22.92;;;13.20;;
29120;SDS011;16191;49.548;8.658;2023-01-04T06:04:08;19.90;;;13.10;;
29120;SDS011;16191;49.548;8.658;2023-01-04T06:06:35;22.58;;;12.43;;
29120;SDS011;16191;49.548;8.658;2023-01-04T06:09:01;20.50;;;13.02;;
29120;SDS011;16191;49.548;8.658;2023-01-04T06:11:28;20.70;;;13.18;;
29120;SDS011;16191;49.548;8.658;2023-01-04T06:13:55;19.27;;;13.40;;
29120;SDS011;16191;49.548;8.658;2023-01-04T06:16:21;20.90;;;12.25;;
29120;SDS011;16191;49.548;8.658;2023-01-04T06:18:49;18.15;;;11.55;;
29120;SDS011;16191;49.548;8.658;2023-01-04T06:21:15;18.85;;;13.10;;
29120;SDS011;16191;49.548;8.658;2023-01-04T06:23:42;17.77;;;11.85;;
29120;SDS011;16191;49.548;8.658;2023-01-04T06:26:09;17.30;;;11.52;;
29120;SDS011;16191;49.548;8.658;2023-01-04T06:28:35;19.05;;;11.93;;
29120;SDS011;16191;49.548;8.658;2023-01-04T06:31:07;18.73;;;11.93;;
29120;SDS011;16191;49.548;8.658;2023-01-04T06:33:35;18.30;;;11.32;;
29120;SDS011;16191;49.548;8.658;2023-01-04T06:36:02;16.83;;;11.50;;
29120;SDS011;16191;49.548;8.658;2023-01-04T06:38:30;16.92;;;11.13;;
29120;SDS011;16191;49.548;8.658;2023-01-04T06:40:58;15.90;;;10.13;;
29120;SDS011;16191;49.548;8.658;2023-01-04T06:43:24;17.73;;;9.38;;
29120;SDS011;16191;49.548;8.658;2023-01-04T06:45:51;17.13;;;10.32;;
29120;SDS011;16191;49.548;8.658;2023-01-04T06:48:18;17.25;;;9.93;;
29120;SDS011;16191;49.548;8.658;2023-01-04T06:50:45;14.40;;;9.63;;
29120;SDS011;16191;49.548;8.658;2023-01-04T06:53:11;17.05;;;9.93;;
29120;SDS011;16191;49.548;8.658;2023-01-04T06:55:38;16.70;;;9.50;;
29120;SDS011;16191;49.548;8.658;2023-01-04T06:58:05;11.57;;;7.65;;
29120;SDS011;16191;49.548;8.658;2023-01-04T07:00:32;13.15;;;8.18;;
29120;SDS011;16191;49.548;8.658;2023-01-04T07:02:59;11.13;;;7.88;;
29120;SDS011;16191;49.548;8.658;2023-01-04T07:05:41;14.38;;;7.70;;
29120;SDS011;16191;49.548;8.658;2023-01-04T07:08:08;10.88;;;6.68;;
29120;SDS011;16191;49.548;8.658;2023-01-04T07:10:36;12.00;;;7.25;;
29120;SDS011;16191;49.548;8.658;2023-01-04T07:13:03;13.43;;;7.30;;
29120;SDS011;16191;49.548;8.658;2023-01-04T07:15:31;12.98;;;6.25;;
29120;SDS011;16191;49.548;8.658;2023-01-04T07:18:06;10.00;;;6.20;;
29120;SDS011;16191;49.548;8.658;2023-01-04T07:20:34;11.25;;;6.60;;
29120;SDS011;16191;49.548;8.658;2023-01-04T07:23:01;9.70;;;5.88;;
29120;SDS011;16191;49.548;8.658;2023-01-04T07:25:28;12.48;;;6.45;;
29120;SDS011;16191;49.548;8.658;2023-01-04T07:27:55;12.68;;;6.20;;
29120;SDS011;16191;49.548;8.658;2023-01-04T07:30:23;10.45;;;5.72;;
29120;SDS011;16191;49.548;8.658;2023-01-04T07:32:50;9.40;;;6.03;;
29120;SDS011;16191;49.548;8.658;2023-01-04T07:35:19;9.27;;;6.10;;
29120;SDS011;16191;49.548;8.658;2023-01-04T07:37:46;10.73;;;5.93;;
29120;SDS011;16191;49.548;8.658;2023-01-04T07:40:21;11.10;;;6.15;;
29120;SDS011;16191;49.548;8.658;2023-01-04T07:42:54;14.82;;;6.13;;
29120;SDS011;16191;49.548;8.658;2023-01-04T07:45:22;11.20;;;6.30;;
29120;SDS011;16191;49.548;8.658;2023-01-04T07:47:50;9.40;;;6.03;;
29120;SDS011;16191;49.548;8.658;2023-01-04T07:50:16;9.40;;;5.97;;
29120;SDS011;16191;49.548;8.658;2023-01-04T07:52:43;9.32;;;5.88;;
29120;SDS011;16191;49.548;8.658;2023-01-04T07:55:10;10.35;;;6.57;;
29120;SDS011;16191;49.548;8.658;2023-01-04T07:57:36;13.70;;;6.43;;
29120;SDS011;16191;49.548;8.658;2023-01-04T08:00:03;11.50;;;6.38;;
29120;SDS011;16191;49.548;8.658;2023-01-04T08:02:37;9.57;;;5.28;;
29120;SDS011;16191;49.548;8.658;2023-01-04T08:05:04;9.68;;;5.28;;
29120;SDS011;16191;49.548;8.658;2023-01-04T08:07:31;9.88;;;5.72;;
29120;SDS011;16191;49.548;8.658;2023-01-04T08:09:58;10.88;;;5.38;;
29120;SDS011;16191;49.548;8.658;2023-01-04T08:12:25;10.70;;;5.35;;
29120;SDS011;16191;49.548;8.658;2023-01-04T08:14:52;10.45;;;5.10;;
29120;SDS011;16191;49.548;8.658;2023-01-04T08:17:18;11.10;;;5.30;;
29120;SDS011;16191;49.548;8.658;2023-01-04T08:19:45;12.13;;;4.88;;
29120;SDS011;16191;49.548;8.658;2023-01-04T08:22:12;8.43;;;4.65;;
29120;SDS011;16191;49.548;8.658;2023-01-04T08:24:39;8.77;;;4.88;;
29120;SDS011;16191;49.548;8.658;2023-01-04T08:27:06;8.65;;;4.50;;
29120;SDS011;16191;49.548;8.658;2023-01-04T08:29:33;8.52;;;4.30;;
29120;SDS011;16191;49.548;8.658;2023-01-04T08:32:01;9.43;;;4.85;;
29120;SDS011;16191;49.548;8.658;2023-01-04T08:34:27;6.68;;;4.22;;
29120;SDS011;16191;49.548;8.658;2023-01-04T08:36:55;9.40;;;3.63;;
29120;SDS011;16191;49.548;8.658;2023-01-04T08:39:22;6.53;;;3.80;;
29120;SDS011;16191;49.548;8.658;2023-01-04T08:41:49;8.32;;;4.00;;
29120;SDS011;16191;49.548;8.658;2023-01-04T08:44:28;7.22;;;3.45;;
29120;SDS011;16191;49.548;8.658;2023-01-04T08:46:55;10.40;;;4.10;;
29120;SDS011;16191;49.548;8.658;2023-01-04T08:49:22;6.47;;;3.40;;
29120;SDS011;16191;49.548;8.658;2023-01-04T08:51:50;5.90;;;3.58;;
29120;SDS011;16191;49.548;8.658;2023-01-04T08:54:17;5.93;;;3.22;;
29120;SDS011;16191;49.548;8.658;2023-01-04T08:56:43;7.05;;;3.00;;
29120;SDS011;16191;49.548;8.658;2023-01-04T08:59:11;6.20;;;2.90;;
29120;SDS011;16191;49.548;8.658;2023-01-04T09:01:39;4.00;;;2.78;;
29120;SDS011;16191;49.548;8.658;2023-01-04T09:04:07;5.43;;;3.03;;
29120;SDS011;16191;49.548;8.658;2023-01-04T09:06:35;7.75;;;2.75;;
29120;SDS011;16191;49.548;8.658;2023-01-04T09:09:03;5.15;;;2.60;;
29120;SDS011;16191;49.548;8.658;2023-01-04T09:11:30;7.50;;;2.80;;
29120;SDS011;16191;49.548;8.658;2023-01-04T09:13:57;4.93;;;2.50;;
29120;SDS011;16191;49.548;8.658;2023-01-04T09:16:33;4.78;;;2.33;;
29120;SDS011;16191;49.548;8.658;2023-01-04T09:19:01;5.38;;;2.13;;
29120;SDS011;16191;49.548;8.658;2023-01-04T09:21:28;4.55;;;1.90;;
29120;SDS011;16191;49.548;8.658;2023-01-04T09:23:55;4.05;;;1.92;;
29120;SDS011;16191;49.548;8.658;2023-01-04T09:26:23;3.78;;;2.00;;
29120;SDS011;16191;49.548;8.658;2023-01-04T09:28:51;3.50;;;1.80;;
29120;SDS011;16191;49.548;8.658;2023-01-04T09:31:20;6.15;;;2.10;;
29120;SDS011;16191;49.548;8.658;2023-01-04T09:33:49;3.40;;;1.75;;
29120;SDS011;16191;49.548;8.658;2023-01-04T09:36:37;3.13;;;1.85;;
29120;SDS011;16191;49.548;8.658;2023-01-04T09:39:04;4.07;;;1.48;;
29120;SDS011;16191;49.548;8.658;2023-01-04T09:41:34;5.55;;;1.45;;
29120;SDS011;16191;49.548;8.658;2023-01-04T09:44:10;2.13;;;1.35;;
29120;SDS011;16191;49.548;8.658;2023-01-04T09:46:44;3.97;;;1.60;;
29120;SDS011;16191;49.548;8.658;2023-01-04T09:49:18;5.55;;;1.75;;
29120;SDS011;16191;49.548;8.658;2023-01-04T09:51:59;8.32;;;1.60;;
29120;SDS011;16191;49.548;8.658;2023-01-04T09:54:31;6.05;;;2.38;;
29120;SDS011;16191;49.548;8.658;2023-01-04T09:57:08;5.10;;;1.70;;
29120;SDS011;16191;49.548;8.658;2023-01-04T09:59:46;4.03;;;1.85;;
29120;SDS011;16191;49.548;8.658;2023-01-04T10:02:18;4.80;;;1.38;;
29120;SDS011;16191;49.548;8.658;2023-01-04T10:04:51;4.63;;;1.80;;
29120;SDS011;16191;49.548;8.658;2023-01-04T10:09:48;5.35;;;1.63;;
29120;SDS011;16191;49.548;8.658;2023-01-04T10:12:39;3.97;;;1.20;;
29120;SDS011;16191;49.548;8.658;2023-01-04T10:17:41;6.95;;;1.25;;
29120;SDS011;16191;49.548;8.658;2023-01-04T10:32:21;2.33;;;1.20;;
29120;SDS011;16191;49.548;8.658;2023-01-04T10:34:49;3.75;;;1.52;;
29120;SDS011;16191;49.548;8.658;2023-01-04T10:37:18;9.43;;;2.05;;
29120;SDS011;16191;49.548;8.658;2023-01-04T10:47:43;2.55;;;1.30;;
29120;SDS011;16191;49.548;8.658;2023-01-04T10:50:30;3.70;;;1.33;;
29120;SDS011;16191;49.548;8.658;2023-01-04T10:58:55;5.13;;;1.52;;
29120;SDS011;16191;49.548;8.658;2023-01-04T11:01:48;3.17;;;1.60;;
29120;SDS011;16191;49.548;8.658;2023-01-04T11:04:39;4.07;;;1.42;;
29120;SDS011;16191;49.548;8.658;2023-01-04T11:07:18;3.13;;;1.10;;
29120;SDS011;16191;49.548;8.658;2023-01-04T11:10:06;4.05;;;1.55;;
29120;SDS011;16191;49.548;8.658;2023-01-04T11:12:38;2.47;;;1.38;;
29120;SDS011;16191;49.548;8.658;2023-01-04T11:15:05;3.35;;;1.15;;
29120;SDS011;16191;49.548;8.658;2023-01-04T11:17:32;5.45;;;1.45;;
29120;SDS011;16191;49.548;8.658;2023-01-04T11:20:00;4.65;;;1.48;;
29120;SDS011;16191;49.548;8.658;2023-01-04T11:25:05;2.33;;;1.50;;
29120;SDS011;16191;49.548;8.658;2023-01-04T11:28:05;2.13;;;1.30;;
29120;SDS011;16191;49.548;8.658;2023-01-04T11:30:44;8.00;;;1.40;;
29120;SDS011;16191;49.548;8.658;2023-01-04T11:33:18;3.22;;;1.75;;
29120;SDS011;16191;49.548;8.658;2023-01-04T11:35:47;3.47;;;1.42;;
29120;SDS011;16191;49.548;8.658;2023-01-04T11:38:20;2.35;;;1.30;;
29120;SDS011;16191;49.548;8.658;2023-01-04T11:40:58;4.55;;;1.60;;
29120;SDS011;16191;49.548;8.658;2023-01-04T11:43:35;5.45;;;2.38;;
29120;SDS011;16191;49.548;8.658;2023-01-04T11:48:42;4.25;;;1.90;;
29120;SDS011;16191;49.548;8.658;2023-01-04T11:56:24;4.28;;;1.60;;
29120;SDS011;16191;49.548;8.658;2023-01-04T12:01:30;2.40;;;1.40;;
29120;SDS011;16191;49.548;8.658;2023-01-04T12:03:59;3.03;;;1.42;;
29120;SDS011;16191;49.548;8.658;2023-01-04T12:09:11;4.53;;;1.25;;
29120;SDS011;16191;49.548;8.658;2023-01-04T12:11:41;2.40;;;1.48;;
29120;SDS011;16191;49.548;8.658;2023-01-04T12:14:19;3.10;;;1.58;;
29120;SDS011;16191;49.548;8.658;2023-01-04T12:19:49;2.20;;;1.27;;
29120;SDS011;16191;49.548;8.658;2023-01-04T12:24:57;3.47;;;1.48;;
29120;SDS011;16191;49.548;8.658;2023-01-04T12:27:26;5.82;;;1.85;;
29120;SDS011;16191;49.548;8.658;2023-01-04T12:30:00;2.20;;;1.20;;
29120;SDS011;16191;49.548;8.658;2023-01-04T12:34:56;5.43;;;1.27;;
29120;SDS011;16191;49.548;8.658;2023-01-04T12:45:45;6.40;;;1.95;;
29120;SDS011;16191;49.548;8.658;2023-01-04T12:48:35;6.38;;;1.60;;
29120;SDS011;16191;49.548;8.658;2023-01-04T12:51:24;4.00;;;1.70;;
29120;SDS011;16191;49.548;8.658;2023-01-04T12:53:58;3.75;;;1.55;;
29120;SDS011;16191;49.548;8.658;2023-01-04T12:57:08;1.95;;;1.50;;
29120;SDS011;16191;49.548;8.658;2023-01-04T12:59:36;5.82;;;1.58;;
29120;SDS011;16191;49.548;8.658;2023-01-04T13:02:13;3.40;;;1.45;;
29120;SDS011;16191;49.548;8.658;2023-01-04T13:04:43;3.78;;;1.58;;
29120;SDS011;16191;49.548;8.658;2023-01-04T13:07:13;3.22;;;1.30;;
29120;SDS011;16191;49.548;8.658;2023-01-04T13:09:53;3.45;;;1.20;;
29120;SDS011;16191;49.548;8.658;2023-01-04T13:15:18;2.58;;;1.50;;
29120;SDS011;16191;49.548;8.658;2023-01-04T13:17:48;2.63;;;1.10;;
29120;SDS011;16191;49.548;8.658;2023-01-04T13:20:20;3.50;;;1.30;;
29120;SDS011;16191;49.548;8.658;2023-01-04T13:22:50;5.95;;;1.80;;
29120;SDS011;16191;49.548;8.658;2023-01-04T13:25:20;4.22;;;1.60;;
29120;SDS011;16191;49.548;8.658;2023-01-04T13:27:59;3.70;;;1.48;;
29120;SDS011;16191;49.548;8.658;2023-01-04T13:30:31;5.60;;;1.75;;
29120;SDS011;16191;49.548;8.658;2023-01-04T13:33:13;3.08;;;1.48;;
29120;SDS011;16191;49.548;8.658;2023-01-04T13:36:08;2.67;;;1.40;;
29120;SDS011;16191;49.548;8.658;2023-01-04T13:38:38;2.38;;;1.33;;
29120;SDS011;16191;49.548;8.658;2023-01-04T13:41:16;2.25;;;1.60;;
29120;SDS011;16191;49.548;8.658;2023-01-04T13:43:50;2.20;;;1.40;;
29120;SDS011;16191;49.548;8.658;2023-01-04T13:46:27;2.97;;;1.60;;
29120;SDS011;16191;49.548;8.658;2023-01-04T13:48:57;4.90;;;1.50;;
29120;SDS011;16191;49.548;8.658;2023-01-04T13:51:30;2.35;;;1.30;;
29120;SDS011;16191;49.548;8.658;2023-01-04T13:54:05;3.45;;;1.58;;
29120;SDS011;16191;49.548;8.658;2023-01-04T13:56:42;2.30;;;1.38;;
29120;SDS011;16191;49.548;8.658;2023-01-04T13:59:10;3.67;;;1.48;;
29120;SDS011;16191;49.548;8.658;2023-01-04T14:01:41;3.78;;;1.88;;
29120;SDS011;16191;49.548;8.658;2023-01-04T14:04:16;2.88;;;1.42;;
29120;SDS011;16191;49.548;8.658;2023-01-04T14:06:51;2.70;;;1.63;;
29120;SDS011;16191;49.548;8.658;2023-01-04T14:09:19;3.80;;;1.70;;
29120;SDS011;16191;49.548;8.658;2023-01-04T14:11:51;2.80;;;1.40;;
29120;SDS011;16191;49.548;8.658;2023-01-04T14:22:26;5.63;;;1.77;;
29120;SDS011;16191;49.548;8.658;2023-01-04T14:30:45;3.33;;;1.65;;
29120;SDS011;16191;49.548;8.658;2023-01-04T14:33:14;5.82;;;1.67;;
29120;SDS011;16191;49.548;8.658;2023-01-04T14:38:41;2.65;;;1.67;;
29120;SDS011;16191;49.548;8.658;2023-01-04T14:41:14;5.18;;;1.92;;
29120;SDS011;16191;49.548;8.658;2023-01-04T14:43:49;4.30;;;1.70;;
29120;SDS011;16191;49.548;8.658;2023-01-04T14:46:36;5.18;;;1.73;;
29120;SDS011;16191;49.548;8.658;2023-01-04T14:49:03;4.65;;;1.65;;
29120;SDS011;16191;49.548;8.658;2023-01-04T14:54:09;5.15;;;1.80;;
29120;SDS011;16191;49.548;8.658;2023-01-04T14:56:37;4.00;;;1.60;;
29120;SDS011;16191;49.548;8.658;2023-01-04T14:59:06;3.00;;;1.83;;
29120;SDS011;16191;49.548;8.658;2023-01-04T15:01:33;1.70;;;1.30;;
29120;SDS011;16191;49.548;8.658;2023-01-04T15:04:04;4.80;;;1.67;;
29120;SDS011;16191;49.548;8.658;2023-01-04T15:06:33;5.97;;;1.70;;
29120;SDS011;16191;49.548;8.658;2023-01-04T15:09:00;2.58;;;1.17;;
29120;SDS011;16191;49.548;8.658;2023-01-04T15:11:28;7.03;;;1.67;;
29120;SDS011;16191;49.548;8.658;2023-01-04T15:13:56;5.35;;;1.90;;
29120;SDS011;16191;49.548;8.658;2023-01-04T15:16:23;4.35;;;1.45;;
29120;SDS011;16191;49.548;8.658;2023-01-04T15:18:50;5.72;;;1.73;;
29120;SDS011;16191;49.548;8.658;2023-01-04T15:21:17;4.53;;;1.98;;
29120;SDS011;16191;49.548;8.658;2023-01-04T15:23:44;3.53;;;1.67;;
29120;SDS011;16191;49.548;8.658;2023-01-04T15:26:11;2.25;;;1.33;;
29120;SDS011;16191;49.548;8.658;2023-01-04T15:28:38;2.92;;;1.15;;
29120;SDS011;16191;49.548;8.658;2023-01-04T15:31:11;2.25;;;1.55;;
29120;SDS011;16191;49.548;8.658;2023-01-04T15:33:39;2.97;;;1.85;;
29120;SDS011;16191;49.548;8.658;2023-01-04T15:36:15;3.55;;;1.17;;
29120;SDS011;16191;49.548;8.658;2023-01-04T15:38:52;3.55;;;1.50;;
29120;SDS011;16191;49.548;8.658;2023-01-04T15:41:19;2.97;;;1.38;;
29120;SDS011;16191;49.548;8.658;2023-01-04T15:44:07;2.50;;;1.23;;
29120;SDS011;16191;49.548;8.658;2023-01-04T15:46:35;4.70;;;1.40;;
29120;SDS011;16191;49.548;8.658;2023-01-04T15:49:01;1.77;;;0.95;;
29120;SDS011;16191;49.548;8.658;2023-01-04T15:51:28;3.58;;;1.63;;
29120;SDS011;16191;49.548;8.658;2023-01-04T15:53:55;2.30;;;1.50;;
29120;SDS011;16191;49.548;8.658;2023-01-04T15:56:22;3.95;;;1.50;;
29120;SDS011;16191;49.548;8.658;2023-01-04T15:58:52;1.98;;;1.15;;
29120;SDS011;16191;49.548;8.658;2023-01-04T16:01:20;4.22;;;1.48;;
29120;SDS011;16191;49.548;8.658;2023-01-04T16:03:48;4.68;;;1.77;;
29120;SDS011;16191;49.548;8.658;2023-01-04T16:06:19;4.90;;;1.45;;
29120;SDS011;16191;49.548;8.658;2023-01-04T16:08:47;4.57;;;1.95;;
29120;SDS011;16191;49.548;8.658;2023-01-04T16:11:16;4.40;;;1.70;;
29120;SDS011;16191;49.548;8.658;2023-01-04T16:13:45;2.65;;;1.70;;
29120;SDS011;16191;49.548;8.658;2023-01-04T16:16:13;4.35;;;1.35;;
29120;SDS011;16191;49.548;8.658;2023-01-04T16:18:45;2.05;;;1.25;;
29120;SDS011;16191;49.548;8.658;2023-01-04T16:21:13;3.65;;;1.40;;
29120;SDS011;16191;49.548;8.658;2023-01-04T16:23:42;3.47;;;1.42;;
29120;SDS011;16191;49.548;8.658;2023-01-04T16:26:09;1.77;;;1.42;;
29120;SDS011;16191;49.548;8.658;2023-01-04T16:28:38;2.05;;;1.48;;
29120;SDS011;16191;49.548;8.658;2023-01-04T16:31:05;2.67;;;1.30;;
29120;SDS011;16191;49.548;8.658;2023-01-04T16:33:34;2.75;;;1.55;;
29120;SDS011;16191;49.548;8.658;2023-01-04T16:36:05;5.55;;;1.90;;
29120;SDS011;16191;49.548;8.658;2023-01-04T16:38:34;4.95;;;1.80;;
29120;SDS011;16191;49.548;8.658;2023-01-04T16:41:03;6.55;;;1.38;;
29120;SDS011;16191;49.548;8.658;2023-01-04T16:43:31;1.85;;;1.13;;
29120;SDS011;16191;49.548;8.658;2023-01-04T16:46:20;4.38;;;1.40;;
29120;SDS011;16191;49.548;8.658;2023-01-04T16:48:49;4.18;;;1.50;;
29120;SDS011;16191;49.548;8.658;2023-01-04T16:51:17;3.75;;;1.50;;
29120;SDS011;16191;49.548;8.658;2023-01-04T16:53:44;2.50;;;1.40;;
29120;SDS011;16191;49.548;8.658;2023-01-04T16:56:12;4.65;;;1.33;;
29120;SDS011;16191;49.548;8.658;2023-01-04T16:58:40;2.58;;;1.60;;
29120;SDS011;16191;49.548;8.658;2023-01-04T17:01:15;3.85;;;1.55;;
29120;SDS011;16191;49.548;8.658;2023-01-04T17:03:44;4.63;;;1.35;;
29120;SDS011;16191;49.548;8.658;2023-01-04T17:06:16;1.85;;;1.35;;